Butts AAF (Fort Carson) Air Field
KFCS : now visible

Airfield :











YOU CAN JOIN US ON...

 
LOGIN :

Register | Disclaimer

   EN    FR    IT 

 









Legend :    VFR   Marginal VFR   IFR   Intensive IFR   Very Intensive IFR
Visi :
Ceiling :
>= 8 km
>= 3000ft
5 to 8 km
1000 to 3000 ft
1500m to 5 km
500 to 1000 ft
800 to 1500m
200 to 500 ft
< 800m
< 200 ft
Symbols :   Thunderstorms  Fog  Heavy snow  Heavy precipitations  Wind > 20 kt






- Airport Elevation : 5838 ft


KFCS - Butts AAF (Fort Carson) Air Field

CURRENT METAR :
  • 250758Z AUTO 33009KT 10SM CLR M02/M10 A2992 RMK AO2 SLP154 T10221103 $

EXPIRED METARs :
  • 250658Z AUTO 33009KT 10SM CLR M02/M11 A2994 RMK AO2 SLP167 T10231106 401171075 $
  • 250558Z AUTO 33009KT 10SM CLR M02/M10 A2995 RMK AO2 SLPNO T10221105 10070 21022 58002 $

TAF TAF KFCS
Valid from the 25 at 05:00 until the 26 at 11:00 UTC


250501Z 2505/2611 VRB06KT 9999 BKN090 QNH2993INS
BECMG 2512/2513 VRB06KT 9999 BKN070 QNH2994INS
BECMG 2515/2516 VRB06KT 9999 SCT070 QNH3000INS
BECMG 2516/2517 VRB06KT 9999 SKC QNH2996INS
BECMG 2601/2602 19009KT 9999 SCT110 QNH2999INS
BECMG 2605/2606 VRB06KT 9999 SKC QNH3004INS TX10/2522Z TN00/2512Z



MET'MAP, your aeronautical weather chart ! - Copyright ORBIFLY December 2007 - Disclaimer

ORBIFLY MET'MAP TEAM :

Programming & Development : Alexandra Zaïnal
Concept & original design : Baudouin d'Aumeries
Assistance for programming : Marc-Olivier Méhu
Technical & hardware support : Manuel Goepfert

Contact : metmap@orbifly.com




SOURCES & CREDITS :

   NOAA       Earth
Advisory